»·PEaware :: PH-TIM KSBA-KSMX

PH-TIM :: KSBA-KSMX

FLIGHT INFORMATION

Flight Status: Arrived
Operator: Privately registered:
Netherlands
More flights under this callsign
Pilot: Tim P. (6337)
Aircraft: CESSNA 172 SKYHAWK
(C172)
More flights by this aircraft type
Origin: KSBA Santa Barbara Mun
United States
Destination: KSMX Santa Maria Pub/Capt Hancock
United States
More flights between these airports :: More routes between these airports
Route: +
File this flight plan on PilotEdge
Remarks:
Altitude:
(Current/Filed)
1,500ft
Speed:
(Current/Filed)
0kts
Departed: 03-Apr-18 10:13 AM
Arrived: 03-Apr-18 10:49 AM
Distance/Time
Traveled:
41nm/0:36
Distance/Time
To Go:
Arrived

Flight Plot

Page will automatically refresh every two minutes.


Map Options




Map Legend


Flown Route
Filed Route
Departure Airport
Arrival Airport
Navaid (VOR, NDB)
Fix

Horizontal Profiles

Position Reports

Time Latitude Longitude Heading Altitude Ground
Speed
03-Apr-18 09:58 34.423077 -119.836089 161 17ft 0kts
03-Apr-18 09:59 34.423077 -119.836089 161 17ft 0kts
03-Apr-18 10:00 34.423077 -119.836089 161 17ft 0kts
03-Apr-18 10:01 34.423077 -119.836089 161 17ft 0kts
03-Apr-18 10:02 34.423077 -119.836089 161 17ft 0kts
03-Apr-18 10:03 34.422769 -119.836760 257 17ft 7kts
03-Apr-18 10:04 34.425207 -119.837900 344 17ft 12kts
03-Apr-18 10:05 34.428779 -119.838995 348 17ft 15kts
03-Apr-18 10:06 34.430619 -119.838894 285 17ft 0kts
03-Apr-18 10:07 34.430619 -119.838894 286 17ft 0kts
03-Apr-18 10:08 34.430619 -119.838894 286 17ft 0kts
03-Apr-18 10:09 34.430619 -119.838895 285 17ft 0kts
03-Apr-18 10:10 34.430619 -119.838895 285 17ft 0kts
03-Apr-18 10:11 34.430619 -119.838895 285 17ft 0kts
03-Apr-18 10:12 34.429020 -119.839840 165 17ft 52kts
03-Apr-18 10:13 34.408479 -119.834507 171 804ft 79kts
03-Apr-18 10:14 34.384129 -119.830573 173 1343ft 111kts
03-Apr-18 10:15 34.364630 -119.812732 71 1887ft 93kts
03-Apr-18 10:16 34.388542 -119.802732 16 2614ft 97kts
03-Apr-18 10:17 34.415178 -119.794501 6 3292ft 98kts
03-Apr-18 10:18 34.442875 -119.792715 4 3919ft 100kts
03-Apr-18 10:19 34.469091 -119.782002 16 4493ft 102kts
03-Apr-18 10:20 34.496692 -119.774499 6 5054ft 102kts
03-Apr-18 10:21 34.523236 -119.779329 301 5578ft 103kts
03-Apr-18 10:22 34.530120 -119.812636 302 6055ft 103kts
03-Apr-18 10:23 34.545808 -119.844074 299 6016ft 109kts
03-Apr-18 10:24 34.561694 -119.875372 301 5903ft 108kts
03-Apr-18 10:25 34.578165 -119.905900 305 5808ft 108kts
03-Apr-18 10:26 34.596047 -119.934852 302 5754ft 106kts
03-Apr-18 10:27 34.610140 -119.965532 297 5904ft 104kts
03-Apr-18 10:28 34.625538 -119.995153 306 6030ft 104kts
03-Apr-18 10:29 34.642470 -120.023855 298 6148ft 104kts
03-Apr-18 10:30 34.654342 -120.055920 292 5872ft 106kts
03-Apr-18 10:31 34.666928 -120.087867 296 5562ft 104kts
03-Apr-18 10:32 34.679023 -120.119776 298 5216ft 103kts
03-Apr-18 10:33 34.694126 -120.149466 303 4719ft 103kts
03-Apr-18 10:34 34.709664 -120.178431 302 4484ft 101kts
03-Apr-18 10:35 34.722876 -120.208351 299 4534ft 101kts
03-Apr-18 10:36 34.738087 -120.236617 302 4781ft 100kts
03-Apr-18 10:37 34.751533 -120.266592 299 4691ft 98kts
03-Apr-18 10:38 34.764802 -120.294308 311 4488ft 93kts
03-Apr-18 10:39 34.783303 -120.316236 312 4072ft 93kts
03-Apr-18 10:40 34.802032 -120.338100 314 3426ft 93kts
03-Apr-18 10:41 34.820361 -120.359957 315 3042ft 91kts
03-Apr-18 10:42 34.838439 -120.381407 317 2477ft 92kts
03-Apr-18 10:43 34.856612 -120.402905 318 1893ft 91kts
03-Apr-18 10:44 34.874281 -120.423697 319 1447ft 82kts
03-Apr-18 10:45 34.888160 -120.442789 300 1105ft 70kts
03-Apr-18 10:46 34.898879 -120.463989 309 1044ft 72kts
03-Apr-18 10:47 34.912292 -120.470671 87 506ft 67kts
03-Apr-18 10:48 34.903009 -120.458049 133 265ft 31kts
03-Apr-18 10:49 34.900621 -120.453551 5 265ft 0kts
03-Apr-18 10:50 34.900065 -120.452067 134 265ft 15kts
03-Apr-18 10:51 34.900478 -120.450409 245 265ft 0kts

Navigation Log

Ident Type
Flight plan parsing failed, navigation log unavailable